createdAt,value
2022-09-10T00:01:59.202Z,3.53
2022-09-10T00:04:26.529Z,2.87
2022-09-10T00:06:53.608Z,3.70
2022-09-10T00:09:20.201Z,3.10
2022-09-10T00:11:46.874Z,3.23
2022-09-10T00:14:20.186Z,3.40
2022-09-10T00:16:47.463Z,3.50
2022-09-10T00:19:14.852Z,3.23
2022-09-10T00:21:41.819Z,3.87
2022-09-10T00:24:08.573Z,3.00
2022-09-10T00:26:39.170Z,2.90
2022-09-10T00:29:10.963Z,2.73
2022-09-10T00:31:38.633Z,2.80
2022-09-10T00:34:06.098Z,2.83
2022-09-10T00:36:40.222Z,2.33
2022-09-10T00:39:13.365Z,2.80
2022-09-10T00:41:42.740Z,2.90
2022-09-10T00:44:38.014Z,3.40
2022-09-10T00:47:12.539Z,2.90
2022-09-10T00:49:44.188Z,2.83
2022-09-10T00:52:12.419Z,2.63
2022-09-10T00:54:40.858Z,2.70
2022-09-10T00:57:12.388Z,2.23
2022-09-10T00:59:42.689Z,2.80
2022-09-10T01:02:09.800Z,3.33
2022-09-10T01:04:36.640Z,2.63
2022-09-10T01:07:03.428Z,3.10
2022-09-10T01:09:31.112Z,2.97
2022-09-10T01:12:19.368Z,2.30
2022-09-10T01:15:05.410Z,2.67
2022-09-10T01:17:54.132Z,2.57
2022-09-10T01:20:29.023Z,2.50
2022-09-10T01:23:33.693Z,3.70
2022-09-10T01:26:12.273Z,3.63
2022-09-10T01:28:50.334Z,3.10
2022-09-10T01:31:39.948Z,3.10
2022-09-10T01:34:16.729Z,3.07
2022-09-10T01:36:45.468Z,2.70
2022-09-10T01:39:12.588Z,3.17
2022-09-10T01:41:39.200Z,3.20
2022-09-10T01:44:10.892Z,3.67
2022-09-10T01:46:54.823Z,3.67
2022-09-10T01:49:32.496Z,3.30
2022-09-10T01:52:28.506Z,3.60
2022-09-10T01:55:32.378Z,3.13
2022-09-10T01:58:09.084Z,2.90
2022-09-10T02:00:41.262Z,3.27
2022-09-10T02:03:16.129Z,2.73
2022-09-10T02:05:44.972Z,3.00
2022-09-10T02:08:18.291Z,2.40
2022-09-10T02:10:59.188Z,3.57
2022-09-10T02:13:28.546Z,2.67
2022-09-10T02:15:56.652Z,2.57
2022-09-10T02:18:24.994Z,3.37
2022-09-10T02:20:55.958Z,2.60
2022-09-10T02:23:31.418Z,3.33
2022-09-10T02:25:58.802Z,3.43
2022-09-10T02:28:25.519Z,3.13
2022-09-10T02:30:52.247Z,2.80
2022-09-10T02:33:18.962Z,2.77
2022-09-10T02:35:47.697Z,3.10
2022-09-10T02:38:14.670Z,3.30
2022-09-10T02:40:43.129Z,3.10
2022-09-10T02:43:09.866Z,3.30
2022-09-10T02:45:38.425Z,3.53
2022-09-10T02:48:05.180Z,3.40
2022-09-10T02:50:35.762Z,3.90
2022-09-10T02:53:02.364Z,3.97
2022-09-10T02:55:28.962Z,3.23
2022-09-10T02:57:55.627Z,3.90
2022-09-10T03:00:22.611Z,3.53
2022-09-10T03:02:49.798Z,3.83
2022-09-10T03:05:17.257Z,3.27
2022-09-10T03:07:43.912Z,4.30
2022-09-10T03:10:10.822Z,3.10
2022-09-10T03:12:39.128Z,3.60
2022-09-10T03:15:06.856Z,4.23
2022-09-10T03:17:33.437Z,4.67
2022-09-10T03:20:00.056Z,3.13
2022-09-10T03:22:26.693Z,3.53
2022-09-10T03:24:55.011Z,3.60
2022-09-10T03:27:25.324Z,4.67
2022-09-10T03:29:52.005Z,3.73
2022-09-10T03:32:19.627Z,3.50
2022-09-10T03:34:46.220Z,3.20
2022-09-10T03:37:14.024Z,4.50
2022-09-10T03:39:40.618Z,4.30
2022-09-10T03:42:07.314Z,3.50
2022-09-10T03:44:34.017Z,3.67
2022-09-10T03:47:01.333Z,3.50
2022-09-10T03:49:28.247Z,3.30
2022-09-10T03:51:55.820Z,3.50
2022-09-10T03:54:22.558Z,3.73
2022-09-10T03:56:49.260Z,3.53
2022-09-10T03:59:17.170Z,3.23
2022-09-10T04:01:47.225Z,3.10
2022-09-10T04:04:14.884Z,3.20
2022-09-10T04:06:41.469Z,3.60
2022-09-10T04:09:08.044Z,3.23
2022-09-10T04:11:35.868Z,3.80
2022-09-10T04:14:02.471Z,3.93
2022-09-10T04:16:29.167Z,3.90
2022-09-10T04:18:55.977Z,3.33
2022-09-10T04:21:25.416Z,3.90
2022-09-10T04:23:56.272Z,3.40
2022-09-10T04:26:23.106Z,3.37
2022-09-10T04:28:49.871Z,3.57
2022-09-10T04:31:17.155Z,3.90
2022-09-10T04:33:44.291Z,4.17
2022-09-10T04:36:12.740Z,3.63
2022-09-10T04:38:41.515Z,3.27
2022-09-10T04:41:09.091Z,3.03
2022-09-10T04:43:36.975Z,2.93
2022-09-10T04:46:03.675Z,3.60
2022-09-10T04:48:30.348Z,2.97
2022-09-10T04:51:15.256Z,2.97
2022-09-10T04:53:43.581Z,3.40
2022-09-10T04:56:10.532Z,3.67
2022-09-10T04:58:39.040Z,3.07
2022-09-10T05:01:06.508Z,2.90
2022-09-10T05:03:33.521Z,2.70
2022-09-10T05:06:00.140Z,3.30
2022-09-10T05:08:26.757Z,3.43
2022-09-10T05:10:53.395Z,2.90
2022-09-10T05:13:19.983Z,3.03
2022-09-10T05:15:46.631Z,3.23
2022-09-10T05:18:13.318Z,3.03
2022-09-10T05:20:39.932Z,3.60
2022-09-10T05:23:06.540Z,2.90
2022-09-10T05:25:34.512Z,3.27
2022-09-10T05:28:01.556Z,3.50
2022-09-10T05:30:32.567Z,3.00
2022-09-10T05:33:00.670Z,3.37
2022-09-10T05:35:28.961Z,3.20
2022-09-10T05:37:59.208Z,3.00
2022-09-10T05:40:25.994Z,3.33
2022-09-10T05:42:53.936Z,3.50
2022-09-10T05:45:21.256Z,2.73
2022-09-10T05:47:47.883Z,3.83
2022-09-10T05:50:14.557Z,2.40
2022-09-10T05:52:41.314Z,3.00
2022-09-10T05:55:09.652Z,2.90
2022-09-10T05:57:36.239Z,2.70
2022-09-10T06:00:07.520Z,2.77
2022-09-10T06:02:34.274Z,2.47
2022-09-10T06:05:01.055Z,2.20
2022-09-10T06:07:29.887Z,2.67
2022-09-10T06:10:02.976Z,3.00
2022-09-10T06:12:29.570Z,2.60
2022-09-10T06:14:56.185Z,2.80
2022-09-10T06:17:22.827Z,2.20
2022-09-10T06:19:51.845Z,2.60
2022-09-10T06:22:18.429Z,2.20
2022-09-10T06:24:47.767Z,2.47
2022-09-10T06:27:14.817Z,2.33
2022-09-10T06:29:41.391Z,2.53
2022-09-10T06:32:08.000Z,2.67
2022-09-10T06:34:35.743Z,3.10
2022-09-10T06:37:04.129Z,2.50
2022-09-10T06:39:30.768Z,2.00
2022-09-10T06:41:57.509Z,2.10
2022-09-10T06:44:24.136Z,1.83
2022-09-10T06:49:39.241Z,1.93
2022-09-10T06:52:05.845Z,1.70
2022-09-10T06:54:32.606Z,1.90
2022-09-10T06:56:59.268Z,2.00
2022-09-10T06:59:25.881Z,1.33
2022-09-10T07:01:52.587Z,1.50
2022-09-10T07:04:19.362Z,2.07
2022-09-10T07:06:47.502Z,1.60
2022-09-10T07:09:14.673Z,1.40
2022-09-10T07:11:41.875Z,1.80
2022-09-10T07:14:13.822Z,1.50
2022-09-10T07:16:44.557Z,1.60
2022-09-10T07:19:14.054Z,1.53
2022-09-10T07:21:41.054Z,1.60
2022-09-10T07:24:10.788Z,1.10
2022-09-10T07:26:37.461Z,1.17
2022-09-10T07:29:05.193Z,0.90
2022-09-10T07:31:37.098Z,1.30
2022-09-10T07:34:04.609Z,1.77
2022-09-10T07:36:31.718Z,0.97
2022-09-10T07:39:01.415Z,1.70
2022-09-10T07:41:29.622Z,0.90
2022-09-10T07:43:56.442Z,1.00
2022-09-10T07:46:25.328Z,1.00
2022-09-10T07:48:57.573Z,1.60
2022-09-10T07:51:25.784Z,1.00
2022-09-10T07:53:54.311Z,1.30
2022-09-10T07:56:23.035Z,1.00
2022-09-10T07:58:50.246Z,0.87
2022-09-10T08:01:17.036Z,1.23
2022-09-10T08:03:45.080Z,1.10
2022-09-10T08:06:12.465Z,1.30
2022-09-10T08:08:40.614Z,1.50
2022-09-10T08:11:12.880Z,1.10
2022-09-10T08:13:41.501Z,1.10
2022-09-10T08:16:10.355Z,0.90
2022-09-10T08:18:37.341Z,0.83
2022-09-10T08:21:05.184Z,0.90
2022-09-10T08:23:32.638Z,1.10
2022-09-10T08:25:59.802Z,0.93
2022-09-10T08:28:27.250Z,0.77
2022-09-10T08:30:58.015Z,1.30
2022-09-10T08:33:25.379Z,1.00
2022-09-10T08:35:57.048Z,0.93
2022-09-10T08:38:25.307Z,1.00
2022-09-10T08:40:54.416Z,0.97
2022-09-10T08:43:41.767Z,1.00
2022-09-10T08:46:20.448Z,0.83
2022-09-10T08:48:50.408Z,0.90
2022-09-10T08:51:29.965Z,1.17
2022-09-10T08:54:02.471Z,0.80
2022-09-10T08:56:30.018Z,0.90
2022-09-10T08:59:21.691Z,1.20
2022-09-10T09:01:55.216Z,0.83
2022-09-10T09:04:42.207Z,0.87
2022-09-10T09:07:15.474Z,1.03
2022-09-10T09:09:42.775Z,0.80
2022-09-10T09:12:18.887Z,0.90
2022-09-10T09:14:57.492Z,0.80
2022-09-10T09:17:48.715Z,0.80
2022-09-10T09:20:23.027Z,0.60
2022-09-10T09:22:55.654Z,0.80
2022-09-10T09:25:33.592Z,1.07
2022-09-10T09:28:00.493Z,0.90
2022-09-10T09:30:37.087Z,0.80
2022-09-10T09:33:13.372Z,1.10
2022-09-10T09:35:52.965Z,0.70
2022-09-10T09:38:23.918Z,1.20
2022-09-10T09:40:56.285Z,1.10
2022-09-10T09:43:50.634Z,0.93
2022-09-10T09:46:19.996Z,0.97
2022-09-10T09:48:47.987Z,1.40
2022-09-10T09:51:21.095Z,1.33
2022-09-10T09:54:12.177Z,1.40
2022-09-10T09:56:49.776Z,1.10
2022-09-10T09:59:24.854Z,1.20
2022-09-10T10:01:51.748Z,1.77
2022-09-10T10:04:27.018Z,1.60
2022-09-10T10:06:56.593Z,1.63
2022-09-10T10:09:33.345Z,1.80
2022-09-10T10:12:05.849Z,1.43
2022-09-10T10:14:32.393Z,2.13
2022-09-10T10:17:01.149Z,1.90
2022-09-10T10:19:39.523Z,2.50
2022-09-10T10:22:18.023Z,2.80
2022-09-10T10:24:46.670Z,1.90
2022-09-10T10:27:23.891Z,2.17
2022-09-10T10:29:58.997Z,2.40
2022-09-10T10:32:34.496Z,1.80
2022-09-10T10:35:16.362Z,1.77
2022-09-10T10:37:56.612Z,1.53
2022-09-10T10:40:36.895Z,2.00
2022-09-10T10:43:30.714Z,1.40
2022-09-10T10:46:06.618Z,1.73
2022-09-10T10:48:52.592Z,1.60
2022-09-10T10:51:53.622Z,1.80
2022-09-10T10:54:44.453Z,1.70
2022-09-10T10:57:17.135Z,1.70
2022-09-10T10:59:54.598Z,1.43
2022-09-10T11:02:45.255Z,1.57
2022-09-10T11:05:51.433Z,1.60
2022-09-10T11:08:28.480Z,1.97
2022-09-10T11:11:13.094Z,1.20
2022-09-10T11:13:55.308Z,1.53
2022-09-10T11:16:40.427Z,1.30
2022-09-10T11:19:22.476Z,1.60
2022-09-10T11:21:54.226Z,1.27
2022-09-10T11:24:29.210Z,2.13
2022-09-10T11:27:19.203Z,1.57
2022-09-10T11:30:03.848Z,1.50
2022-09-10T11:33:04.258Z,1.87
2022-09-10T11:35:37.317Z,1.93
2022-09-10T11:38:47.755Z,1.90
2022-09-10T11:41:22.780Z,1.90
2022-09-10T11:44:24.912Z,1.50
2022-09-10T11:47:04.072Z,1.90
2022-09-10T11:50:21.533Z,1.80
2022-09-10T11:52:48.691Z,2.10
2022-09-10T11:55:17.452Z,2.40
2022-09-10T11:58:05.724Z,1.60
2022-09-10T12:00:38.946Z,1.77
2022-09-10T12:03:21.505Z,1.90
2022-09-10T12:06:02.627Z,1.90
2022-09-10T12:08:44.238Z,2.03
2022-09-10T12:11:16.645Z,1.60
2022-09-10T12:13:45.812Z,1.93
2022-09-10T12:16:42.842Z,1.83
2022-09-10T12:19:33.747Z,1.90
2022-09-10T12:22:06.359Z,1.60
2022-09-10T12:24:38.779Z,1.70
2022-09-10T12:27:07.008Z,2.20
2022-09-10T12:29:40.646Z,1.80
2022-09-10T12:32:19.429Z,1.83
2022-09-10T12:34:49.694Z,1.73
2022-09-10T12:37:22.850Z,1.93
2022-09-10T12:40:25.112Z,1.87
2022-09-10T12:42:52.354Z,1.83
2022-09-10T12:46:01.015Z,2.03
2022-09-10T12:48:29.776Z,1.60
2022-09-10T12:51:00.439Z,1.83
2022-09-10T12:53:48.177Z,1.57
2022-09-10T12:56:33.894Z,1.80
2022-09-10T12:59:26.375Z,1.60
2022-09-10T13:01:54.157Z,1.37
2022-09-10T13:04:29.848Z,2.00
2022-09-10T13:07:01.392Z,2.47
2022-09-10T13:09:32.548Z,1.70
2022-09-10T13:12:06.588Z,2.23
2022-09-10T13:14:40.907Z,2.60
2022-09-10T13:17:38.049Z,2.40
2022-09-10T13:20:21.719Z,2.40
2022-09-10T13:23:10.162Z,2.17
2022-09-10T13:25:45.099Z,2.60
2022-09-10T13:28:30.011Z,2.40
2022-09-10T13:31:11.941Z,2.77
2022-09-10T13:33:51.812Z,1.80
2022-09-10T13:36:37.432Z,2.73
2022-09-10T13:39:37.878Z,2.63
2022-09-10T13:42:24.844Z,2.40
2022-09-10T13:44:57.583Z,2.00
2022-09-10T13:47:57.255Z,1.90
2022-09-10T13:50:34.739Z,2.50
2022-09-10T13:53:05.906Z,2.70
2022-09-10T13:55:34.025Z,2.20
2022-09-10T13:58:09.301Z,2.40
2022-09-10T14:00:49.952Z,1.80
2022-09-10T14:03:22.850Z,2.33
2022-09-10T14:06:03.291Z,2.30
2022-09-10T14:08:33.095Z,2.10
2022-09-10T14:11:07.250Z,2.60
2022-09-10T14:13:42.401Z,2.37
2022-09-10T14:16:13.559Z,2.23
2022-09-10T14:18:51.448Z,2.23
2022-09-10T14:21:26.723Z,2.50
2022-09-10T14:23:58.889Z,3.40
2022-09-10T14:26:28.043Z,3.10
2022-09-10T14:29:03.400Z,3.20
2022-09-10T14:31:36.724Z,3.13
2022-09-10T14:34:33.454Z,3.60
2022-09-10T14:37:01.245Z,2.83
2022-09-10T14:39:28.556Z,3.00
2022-09-10T14:42:10.417Z,2.80
2022-09-10T14:44:42.285Z,2.40
2022-09-10T14:47:08.937Z,3.30
2022-09-10T14:49:38.881Z,3.30
2022-09-10T14:52:07.771Z,2.77
2022-09-10T14:54:35.049Z,3.33
2022-09-10T14:57:04.680Z,6.07
2022-09-10T14:59:31.675Z,3.47
2022-09-10T15:02:00.826Z,3.60
2022-09-10T15:04:29.929Z,3.10
2022-09-10T15:07:00.511Z,3.40
2022-09-10T15:09:28.552Z,2.50
2022-09-10T15:12:29.494Z,3.60
2022-09-10T15:14:57.570Z,3.10
2022-09-10T15:17:24.427Z,3.23
2022-09-10T15:19:52.097Z,3.40
2022-09-10T15:22:30.406Z,3.00
2022-09-10T15:25:13.292Z,3.30
2022-09-10T15:27:39.882Z,3.70
2022-09-10T15:30:07.235Z,3.60
2022-09-10T15:32:35.862Z,3.40
2022-09-10T15:35:04.214Z,3.00
2022-09-10T15:37:30.785Z,3.90
2022-09-10T15:39:58.358Z,3.07
2022-09-10T15:42:25.108Z,3.97
2022-09-10T15:44:51.701Z,3.37
2022-09-10T15:47:18.338Z,4.07
2022-09-10T15:49:44.915Z,3.37
2022-09-10T15:52:11.501Z,3.50
2022-09-10T15:54:38.635Z,3.77
2022-09-10T15:57:06.701Z,3.77
2022-09-10T15:59:33.279Z,3.70
2022-09-10T16:01:59.982Z,3.50
2022-09-10T16:04:30.678Z,3.90
2022-09-10T16:07:00.416Z,3.93
2022-09-10T16:09:27.034Z,3.87
2022-09-10T16:11:53.746Z,3.80
2022-09-10T16:14:21.524Z,3.83
2022-09-10T16:16:50.897Z,3.10
2022-09-10T16:19:17.646Z,3.30
2022-09-10T16:21:45.690Z,3.30
2022-09-10T16:24:12.464Z,3.47
2022-09-10T16:26:41.146Z,3.60
2022-09-10T16:29:14.249Z,3.70
2022-09-10T16:31:41.504Z,3.30
2022-09-10T16:34:11.838Z,3.10
2022-09-10T16:36:39.431Z,3.70
2022-09-10T16:39:12.167Z,3.80
2022-09-10T16:41:44.177Z,3.50
2022-09-10T16:44:12.013Z,3.57
2022-09-10T16:46:40.163Z,3.80
2022-09-10T16:49:12.413Z,3.40
2022-09-10T16:51:39.490Z,3.20
2022-09-10T16:54:07.193Z,3.90
2022-09-10T16:56:45.186Z,3.70
2022-09-10T16:59:17.644Z,4.20
2022-09-10T17:01:48.219Z,3.73
2022-09-10T17:04:24.651Z,3.70
2022-09-10T17:06:52.918Z,5.67
2022-09-10T17:09:19.592Z,3.87
2022-09-10T17:11:46.351Z,3.87
2022-09-10T17:14:12.919Z,3.80
2022-09-10T17:16:41.440Z,4.33
2022-09-10T17:19:11.516Z,3.17
2022-09-10T17:21:40.675Z,4.10
2022-09-10T17:24:10.727Z,3.50
2022-09-10T17:26:39.472Z,3.40
2022-09-10T17:29:12.550Z,4.13
2022-09-10T17:31:39.593Z,3.20
2022-09-10T17:34:07.165Z,3.00
2022-09-10T17:36:34.197Z,3.13
2022-09-10T17:39:01.099Z,3.17
2022-09-10T17:41:29.091Z,3.27
2022-09-10T17:43:57.630Z,3.20
2022-09-10T17:46:24.506Z,3.53
2022-09-10T17:48:52.124Z,6.37
2022-09-10T17:51:21.593Z,7.30
2022-09-10T17:53:48.944Z,4.70
2022-09-10T17:56:18.928Z,3.90
2022-09-10T17:58:47.181Z,3.93
2022-09-10T18:01:23.787Z,4.30
2022-09-10T18:03:51.471Z,3.63
2022-09-10T18:06:18.485Z,3.43
2022-09-10T18:08:45.285Z,3.77
2022-09-10T18:11:16.303Z,3.83
2022-09-10T18:13:44.438Z,3.90
2022-09-10T18:16:14.723Z,3.73
2022-09-10T18:18:41.466Z,4.17
2022-09-10T18:21:17.483Z,5.17
2022-09-10T18:23:44.115Z,4.30
2022-09-10T18:26:15.958Z,4.00
2022-09-10T18:28:44.057Z,4.77
2022-09-10T18:31:11.334Z,5.67
2022-09-10T18:33:40.029Z,5.53
2022-09-10T18:36:12.483Z,6.53
2022-09-10T18:38:40.212Z,5.33
2022-09-10T18:41:18.104Z,6.23
2022-09-10T18:43:46.419Z,5.83
2022-09-10T18:46:14.837Z,5.87
2022-09-10T18:48:42.441Z,6.10
2022-09-10T18:51:11.809Z,7.23
2022-09-10T18:53:39.726Z,8.23
2022-09-10T18:56:11.576Z,8.07
2022-09-10T18:58:38.799Z,6.70
2022-09-10T19:01:11.459Z,6.70
2022-09-10T19:03:42.461Z,6.47
2022-09-10T19:06:11.808Z,6.53
2022-09-10T19:08:45.650Z,6.17
2022-09-10T19:11:17.252Z,8.13
2022-09-10T19:13:48.755Z,9.10
2022-09-10T19:16:16.041Z,9.60
2022-09-10T19:18:43.594Z,10.50
2022-09-10T19:21:10.483Z,13.83
2022-09-10T19:23:37.446Z,15.93
2022-09-10T19:26:04.257Z,16.43
2022-09-10T19:28:33.672Z,18.70
2022-09-10T19:31:03.311Z,20.13
2022-09-10T19:33:30.879Z,21.30
2022-09-10T19:36:02.930Z,23.80
2022-09-10T19:38:37.417Z,25.37
2022-09-10T19:41:20.816Z,23.80
2022-09-10T19:43:50.205Z,26.43
2022-09-10T19:46:18.833Z,26.67
2022-09-10T19:48:51.702Z,27.10
2022-09-10T19:51:20.172Z,28.00
2022-09-10T19:53:48.786Z,28.77
2022-09-10T19:56:21.450Z,29.50
2022-09-10T19:58:53.343Z,30.20
2022-09-10T20:01:23.473Z,31.73
2022-09-10T20:03:51.949Z,33.00
2022-09-10T20:06:21.454Z,30.77
2022-09-10T20:08:51.099Z,33.50
2022-09-10T20:11:20.906Z,35.60
2022-09-10T20:13:48.344Z,34.07
2022-09-10T20:16:16.471Z,36.10
2022-09-10T20:18:43.420Z,32.70
2022-09-10T20:21:20.438Z,32.47
2022-09-10T20:23:50.814Z,30.80
2022-09-10T20:26:23.979Z,31.43
2022-09-10T20:28:59.456Z,31.90
2022-09-10T20:31:27.781Z,17.90
2022-09-10T20:33:56.476Z,18.90
2022-09-10T20:36:24.392Z,17.37
2022-09-10T20:38:52.205Z,19.30
2022-09-10T20:41:19.212Z,20.73
2022-09-10T20:43:52.923Z,24.50
2022-09-10T20:46:22.137Z,24.50
2022-09-10T20:48:50.726Z,28.43
2022-09-10T20:51:18.790Z,28.20
2022-09-10T20:53:45.659Z,29.60
2022-09-10T20:56:14.866Z,28.47
2022-09-10T20:58:41.957Z,28.43
2022-09-10T21:01:14.473Z,28.47
2022-09-10T21:03:41.403Z,27.00
2022-09-10T21:06:10.056Z,28.80
2022-09-10T21:08:38.035Z,28.97
2022-09-10T21:11:12.863Z,29.43
2022-09-10T21:13:45.472Z,28.03
2022-09-10T21:16:16.133Z,29.47
2022-09-10T21:18:50.833Z,29.50
2022-09-10T21:21:22.633Z,31.80
2022-09-10T21:23:54.882Z,30.47
2022-09-10T21:26:25.115Z,30.73
2022-09-10T21:28:57.911Z,31.43
2022-09-10T21:31:27.092Z,31.07
2022-09-10T21:34:00.662Z,30.63
2022-09-10T21:36:30.009Z,28.70
2022-09-10T21:38:59.464Z,30.80
2022-09-10T21:41:31.626Z,30.00
2022-09-10T21:43:59.832Z,31.50
2022-09-10T21:46:27.349Z,29.37
2022-09-10T21:48:53.995Z,31.97
2022-09-10T21:51:22.011Z,31.40
2022-09-10T21:53:52.568Z,29.67
2022-09-10T21:56:19.159Z,28.93
2022-09-10T21:58:46.740Z,30.07
2022-09-10T22:01:17.150Z,30.60
2022-09-10T22:03:48.715Z,32.43
2022-09-10T22:06:27.394Z,33.50
2022-09-10T22:09:00.266Z,33.27
2022-09-10T22:11:36.109Z,32.33
2022-09-10T22:14:22.898Z,34.70
2022-09-10T22:16:50.171Z,33.50
2022-09-10T22:19:22.838Z,35.30
2022-09-10T22:21:50.175Z,35.10
2022-09-10T22:24:19.513Z,33.27
2022-09-10T22:26:47.244Z,30.23
2022-09-10T22:29:18.561Z,34.57
2022-09-10T22:31:57.681Z,32.27
2022-09-10T22:34:36.447Z,36.23
2022-09-10T22:37:03.417Z,38.47
2022-09-10T22:39:36.843Z,39.03
2022-09-10T22:42:04.595Z,39.43
2022-09-10T22:44:31.510Z,40.43
2022-09-10T22:46:58.277Z,40.37
2022-09-10T22:49:24.877Z,39.67
2022-09-10T22:52:04.855Z,39.77
2022-09-10T22:54:31.632Z,40.10
2022-09-10T22:57:06.157Z,36.67
2022-09-10T22:59:37.379Z,38.70
2022-09-10T23:02:10.477Z,39.73
2022-09-10T23:04:38.272Z,40.17
2022-09-10T23:07:06.440Z,36.53
2022-09-10T23:09:33.038Z,40.90
2022-09-10T23:12:01.339Z,39.07
2022-09-10T23:14:29.117Z,41.40
2022-09-10T23:16:57.541Z,42.57
2022-09-10T23:19:25.163Z,40.10
2022-09-10T23:21:54.045Z,39.10
2022-09-10T23:24:24.330Z,40.57
2022-09-10T23:26:51.126Z,42.53
2022-09-10T23:29:17.982Z,39.40
2022-09-10T23:31:45.996Z,38.50
2022-09-10T23:34:19.821Z,41.20
2022-09-10T23:36:48.274Z,43.93
2022-09-10T23:39:20.265Z,42.43
2022-09-10T23:41:51.325Z,43.37
2022-09-10T23:44:18.475Z,42.33
2022-09-10T23:46:45.234Z,42.13
2022-09-10T23:49:12.604Z,44.63
2022-09-10T23:51:39.577Z,44.80
2022-09-10T23:54:06.347Z,44.47
2022-09-10T23:56:32.946Z,44.80
2022-09-10T23:59:00.010Z,42.03
